createdAt,value
2023-02-07T00:01:38.194Z,78.90
2023-02-07T00:05:39.443Z,78.61
2023-02-07T00:09:42.330Z,77.49
2023-02-07T00:13:42.493Z,77.61
2023-02-07T00:17:42.902Z,77.02
2023-02-07T00:21:43.260Z,77.15
2023-02-07T00:25:49.039Z,77.36
2023-02-07T00:29:49.225Z,77.36
2023-02-07T00:33:52.181Z,76.04
2023-02-07T00:37:52.327Z,76.62
2023-02-07T00:41:55.069Z,77.28
2023-02-07T00:45:55.145Z,77.81
2023-02-07T00:49:55.265Z,77.41
2023-02-07T00:53:56.639Z,77.92
2023-02-07T00:58:00.172Z,78.26
2023-02-07T01:02:00.290Z,77.82
2023-02-07T01:06:00.918Z,77.63
2023-02-07T01:10:01.048Z,76.84
2023-02-07T01:14:05.367Z,76.40
2023-02-07T01:18:05.476Z,77.37
2023-02-07T01:22:06.688Z,76.77
2023-02-07T01:26:08.883Z,76.19
2023-02-07T01:30:14.003Z,76.96
2023-02-07T01:34:16.154Z,76.98
2023-02-07T01:38:16.277Z,77.29
2023-02-07T01:42:18.636Z,76.41
2023-02-07T01:46:21.308Z,76.34
2023-02-07T01:50:21.855Z,77.20
2023-02-07T01:54:24.702Z,76.33
2023-02-07T01:58:26.841Z,76.07
2023-02-07T02:02:34.768Z,77.61
2023-02-07T02:06:37.795Z,77.90
2023-02-07T02:11:05.364Z,77.34
2023-02-07T02:15:23.423Z,77.43
2023-02-07T02:20:28.137Z,77.50
2023-02-07T02:25:15.512Z,78.31
2023-02-07T02:30:02.301Z,77.90
2023-02-07T02:34:15.196Z,77.95
2023-02-07T02:38:25.856Z,79.03
2023-02-07T02:42:35.195Z,79.12
2023-02-07T02:46:41.575Z,79.94
2023-02-07T02:50:49.777Z,80.50
2023-02-07T02:54:49.990Z,79.88
2023-02-07T02:59:32.473Z,80.01
2023-02-07T03:04:03.499Z,80.27
2023-02-07T03:08:20.105Z,79.79
2023-02-07T03:12:27.206Z,79.49
2023-02-07T03:16:34.079Z,79.92
2023-02-07T03:20:42.094Z,80.44
2023-02-07T03:24:49.427Z,79.38
2023-02-07T03:28:51.617Z,79.96
2023-02-07T03:32:57.083Z,80.76
2023-02-07T03:37:05.819Z,81.71
2023-02-07T03:41:18.151Z,81.09
2023-02-07T03:45:23.672Z,80.81
2023-02-07T03:49:24.798Z,81.43
2023-02-07T03:53:25.103Z,80.73
2023-02-07T03:57:27.729Z,80.53
2023-02-07T04:01:28.053Z,81.14
2023-02-07T04:05:28.242Z,79.68
2023-02-07T04:09:28.499Z,79.97
2023-02-07T04:13:32.561Z,79.35
2023-02-07T04:17:32.756Z,77.97
2023-02-07T04:21:32.860Z,77.83
2023-02-07T04:25:32.846Z,76.89
2023-02-07T04:29:35.773Z,76.72
2023-02-07T04:33:36.089Z,76.50
2023-02-07T04:37:36.226Z,77.09
2023-02-07T04:41:36.319Z,76.67
2023-02-07T04:45:39.485Z,76.52
2023-02-07T04:49:39.835Z,77.01
2023-02-07T04:53:39.931Z,77.59
2023-02-07T04:57:40.034Z,77.64
2023-02-07T05:01:42.910Z,78.08
2023-02-07T05:05:43.604Z,76.97
2023-02-07T05:09:43.710Z,76.95
2023-02-07T05:13:44.010Z,77.05
2023-02-07T05:17:46.787Z,76.59
2023-02-07T05:21:46.937Z,76.18
2023-02-07T05:25:47.535Z,76.22
2023-02-07T05:29:47.648Z,76.53
2023-02-07T05:33:52.254Z,76.59
2023-02-07T05:37:52.416Z,77.78
2023-02-07T05:41:52.590Z,78.02
2023-02-07T05:45:53.101Z,77.19
2023-02-07T05:49:55.920Z,77.40
2023-02-07T05:53:55.984Z,76.73
2023-02-07T05:57:56.100Z,76.62
2023-02-07T06:01:56.205Z,76.47
2023-02-07T06:05:59.087Z,76.28
2023-02-07T06:09:59.247Z,75.74
2023-02-07T06:13:59.436Z,75.42
2023-02-07T06:17:59.518Z,76.38
2023-02-07T06:22:02.246Z,75.84
2023-02-07T06:26:02.365Z,77.00
2023-02-07T06:30:02.458Z,77.15
2023-02-07T06:34:02.574Z,77.08
2023-02-07T06:38:05.733Z,77.66
2023-02-07T06:42:06.243Z,78.29
2023-02-07T06:46:06.488Z,81.57
2023-02-07T06:50:09.166Z,80.96
2023-02-07T06:54:12.017Z,79.46
2023-02-07T06:58:12.375Z,78.86
2023-02-07T07:02:14.919Z,78.09
2023-02-07T07:06:15.017Z,77.85
2023-02-07T07:10:18.122Z,78.65
2023-02-07T07:14:18.238Z,79.46
2023-02-07T07:18:18.554Z,78.17
2023-02-07T07:22:21.206Z,78.41
2023-02-07T07:26:24.837Z,79.20
2023-02-07T07:30:24.988Z,79.18
2023-02-07T07:34:24.999Z,78.80
2023-02-07T07:38:25.795Z,78.38
2023-02-07T07:42:28.870Z,78.07
2023-02-07T07:46:43.132Z,78.01
2023-02-07T07:50:43.700Z,78.26
2023-02-07T07:54:43.844Z,78.49
2023-02-07T07:58:48.546Z,78.05
2023-02-07T08:02:48.607Z,75.45
2023-02-07T08:06:48.863Z,76.25
2023-02-07T08:10:49.963Z,75.08
2023-02-07T08:14:52.845Z,74.29
2023-02-07T08:18:53.080Z,74.06
2023-02-07T08:22:53.295Z,74.00
2023-02-07T08:26:53.336Z,74.05
2023-02-07T08:30:56.426Z,71.35
2023-02-07T08:34:56.620Z,72.00
2023-02-07T08:38:56.739Z,70.24
2023-02-07T08:42:56.844Z,67.66
2023-02-07T08:46:59.685Z,65.96
2023-02-07T08:50:59.851Z,64.24
2023-02-07T08:54:59.905Z,64.28
2023-02-07T08:58:59.985Z,62.88
2023-02-07T09:03:03.740Z,60.94
2023-02-07T09:07:03.894Z,61.77
2023-02-07T09:11:09.192Z,59.48
2023-02-07T09:15:10.794Z,58.04
2023-02-07T09:19:13.459Z,59.28
2023-02-07T09:23:22.461Z,57.65
2023-02-07T09:27:22.559Z,55.90
2023-02-07T09:31:26.015Z,55.94
2023-02-07T09:35:29.229Z,53.38
2023-02-07T09:39:29.776Z,53.84
2023-02-07T09:43:50.850Z,52.40
2023-02-07T09:48:01.150Z,51.16
2023-02-07T09:52:07.900Z,49.75
2023-02-07T09:56:09.668Z,49.36
2023-02-07T10:00:25.517Z,49.77
2023-02-07T10:04:38.004Z,49.29
2023-02-07T10:08:41.453Z,48.12
2023-02-07T10:13:13.247Z,47.54
2023-02-07T10:17:33.010Z,46.29
2023-02-07T10:21:46.927Z,45.67
2023-02-07T10:26:06.821Z,44.94
2023-02-07T10:30:18.966Z,44.24
2023-02-07T10:34:24.975Z,44.34
2023-02-07T10:38:33.654Z,43.95
2023-02-07T10:42:40.558Z,44.46
2023-02-07T10:46:43.493Z,44.68
2023-02-07T10:50:45.701Z,44.36
2023-02-07T10:54:56.571Z,43.14
2023-02-07T10:59:00.894Z,42.26
2023-02-07T11:03:06.986Z,42.80
2023-02-07T11:07:10.400Z,42.49
2023-02-07T11:11:32.503Z,43.19
2023-02-07T11:15:49.499Z,42.79
2023-02-07T11:19:49.757Z,41.59
2023-02-07T11:23:52.620Z,40.44
2023-02-07T11:27:52.833Z,40.14
2023-02-07T11:31:59.874Z,40.00
2023-02-07T11:36:13.672Z,38.70
2023-02-07T11:40:32.130Z,39.14
2023-02-07T11:44:35.091Z,38.95
2023-02-07T11:48:42.391Z,37.82
2023-02-07T11:52:42.661Z,36.80
2023-02-07T11:56:46.253Z,36.31
2023-02-07T12:00:46.991Z,35.98
2023-02-07T12:04:50.145Z,35.13
2023-02-07T12:08:50.573Z,35.78
2023-02-07T12:12:56.837Z,34.21
2023-02-07T12:17:02.856Z,34.52
2023-02-07T12:21:15.896Z,33.75
2023-02-07T12:25:24.255Z,32.71
2023-02-07T12:29:37.450Z,33.57
2023-02-07T12:33:48.833Z,31.37
2023-02-07T12:38:02.585Z,30.88
2023-02-07T12:42:26.228Z,31.06
2023-02-07T12:46:37.297Z,29.88
2023-02-07T12:51:07.002Z,29.84
2023-02-07T12:55:26.219Z,29.32
2023-02-07T12:59:43.041Z,29.45
2023-02-07T13:04:07.284Z,27.57
2023-02-07T13:08:25.988Z,28.95
2023-02-07T13:12:38.086Z,28.62
2023-02-07T13:16:48.786Z,27.44
2023-02-07T13:21:11.509Z,28.11
2023-02-07T13:25:24.966Z,28.11
2023-02-07T13:29:32.082Z,27.44
2023-02-07T13:33:37.393Z,28.27
2023-02-07T13:37:51.597Z,27.39
2023-02-07T13:42:07.643Z,28.26
2023-02-07T13:46:29.504Z,29.47
2023-02-07T13:50:48.714Z,28.65
2023-02-07T13:55:05.526Z,28.75
2023-02-07T13:59:18.371Z,28.32
2023-02-07T14:03:30.727Z,28.23
2023-02-07T14:07:35.976Z,29.88
2023-02-07T14:11:44.266Z,29.20
2023-02-07T14:16:06.042Z,29.90
2023-02-07T14:20:44.482Z,29.77
2023-02-07T14:24:53.874Z,29.98
2023-02-07T14:28:53.928Z,30.50
2023-02-07T14:33:16.006Z,30.08
2023-02-07T14:37:43.593Z,31.12
2023-02-07T14:41:46.883Z,30.55
2023-02-07T14:46:07.660Z,30.34
2023-02-07T14:50:10.366Z,30.44
2023-02-07T14:54:24.184Z,30.70
2023-02-07T14:58:36.935Z,31.90
2023-02-07T15:02:40.143Z,32.60
2023-02-07T15:06:44.336Z,34.35
2023-02-07T15:10:55.374Z,35.93
2023-02-07T15:14:58.565Z,36.51
2023-02-07T15:19:02.793Z,36.82
2023-02-07T15:23:07.372Z,35.15
2023-02-07T15:27:23.422Z,34.59
2023-02-07T15:31:23.923Z,34.45
2023-02-07T15:35:27.095Z,34.45
2023-02-07T15:39:31.728Z,34.29
2023-02-07T15:43:37.586Z,34.55
2023-02-07T15:47:39.363Z,35.52
2023-02-07T15:51:44.440Z,36.83
2023-02-07T15:55:48.595Z,37.91
2023-02-07T15:59:53.396Z,39.49
2023-02-07T16:03:54.630Z,41.11
2023-02-07T16:07:55.912Z,41.19
2023-02-07T16:11:56.061Z,42.40
2023-02-07T16:16:01.483Z,43.97
2023-02-07T16:20:02.015Z,44.20
2023-02-07T16:24:09.572Z,46.32
2023-02-07T16:28:18.371Z,46.85
2023-02-07T16:32:21.309Z,46.80
2023-02-07T16:36:21.949Z,47.72
2023-02-07T16:40:24.143Z,48.26
2023-02-07T16:44:28.279Z,49.81
2023-02-07T16:48:31.006Z,50.12
2023-02-07T16:52:32.324Z,51.39
2023-02-07T16:56:32.406Z,51.84
2023-02-07T17:00:32.676Z,52.03
2023-02-07T17:04:35.914Z,53.85
2023-02-07T17:08:37.791Z,54.36
2023-02-07T17:12:38.884Z,55.70
2023-02-07T17:16:39.960Z,56.36
2023-02-07T17:20:43.918Z,56.98
2023-02-07T17:24:44.137Z,57.55
2023-02-07T17:28:44.241Z,58.08
2023-02-07T17:32:45.369Z,58.63
2023-02-07T17:36:51.020Z,59.58
2023-02-07T17:40:51.585Z,60.22
2023-02-07T17:44:52.592Z,58.79
2023-02-07T17:48:55.018Z,58.58
2023-02-07T17:52:57.877Z,59.08
2023-02-07T17:56:57.994Z,59.57
2023-02-07T18:00:58.305Z,60.69
2023-02-07T18:04:59.771Z,60.71
2023-02-07T18:09:02.474Z,61.88
2023-02-07T18:13:03.882Z,62.42
2023-02-07T18:17:04.248Z,62.64
2023-02-07T18:21:07.027Z,64.86
2023-02-07T18:25:10.277Z,66.70
2023-02-07T18:29:10.793Z,66.07
2023-02-07T18:33:13.486Z,66.74
2023-02-07T18:37:14.446Z,67.29
2023-02-07T18:41:23.568Z,67.09
2023-02-07T18:45:24.996Z,67.84
2023-02-07T18:49:27.943Z,67.72
2023-02-07T18:53:28.996Z,67.72
2023-02-07T18:57:31.796Z,67.86
2023-02-07T19:01:35.236Z,68.60
2023-02-07T19:05:35.875Z,68.93
2023-02-07T19:09:36.727Z,68.58
2023-02-07T19:13:40.244Z,68.83
2023-02-07T19:17:40.788Z,69.38
2023-02-07T19:21:41.694Z,69.31
2023-02-07T19:25:54.086Z,69.29
2023-02-07T19:29:57.148Z,72.27
2023-02-07T19:38:05.588Z,70.57
2023-02-07T19:42:05.704Z,69.10
2023-02-07T19:46:06.432Z,68.41
2023-02-07T19:50:07.642Z,68.32
2023-02-07T19:54:10.956Z,68.49
2023-02-07T19:58:11.746Z,68.10
2023-02-07T20:02:15.958Z,68.76
2023-02-07T20:06:25.360Z,68.81
2023-02-07T20:10:28.088Z,68.72
2023-02-07T20:14:28.288Z,68.83
2023-02-07T20:18:29.189Z,69.72
2023-02-07T20:22:30.134Z,69.56
2023-02-07T20:26:36.861Z,69.94
2023-02-07T20:30:40.741Z,70.00
2023-02-07T20:34:41.281Z,70.17
2023-02-07T20:38:41.480Z,69.83
2023-02-07T20:42:44.452Z,69.48
2023-02-07T20:46:46.708Z,70.41
2023-02-07T20:50:46.881Z,70.09
2023-02-07T20:54:47.865Z,70.44
2023-02-07T20:58:50.668Z,70.51
2023-02-07T21:02:50.941Z,70.86
2023-02-07T21:06:51.044Z,70.49
2023-02-07T21:10:52.553Z,70.38
2023-02-07T21:14:57.322Z,70.08
2023-02-07T21:18:57.336Z,70.15
2023-02-07T21:22:57.878Z,69.93
2023-02-07T21:26:59.338Z,71.88
2023-02-07T21:31:06.441Z,70.98
2023-02-07T21:35:06.864Z,71.25
2023-02-07T21:39:10.540Z,71.51
2023-02-07T21:43:11.154Z,72.58
2023-02-07T21:47:14.001Z,72.43
2023-02-07T21:51:18.534Z,71.99
2023-02-07T21:55:19.546Z,72.02
2023-02-07T21:59:24.693Z,71.77
2023-02-07T22:03:27.498Z,71.74
2023-02-07T22:07:27.628Z,71.08
2023-02-07T22:11:32.628Z,71.00
2023-02-07T22:15:34.222Z,70.37
2023-02-07T22:19:37.345Z,70.61
2023-02-07T22:23:38.862Z,70.60
2023-02-07T22:27:38.928Z,70.53
2023-02-07T22:31:42.812Z,71.03
2023-02-07T22:35:47.609Z,71.20
2023-02-07T22:39:52.539Z,70.14
2023-02-07T22:43:53.253Z,70.50
2023-02-07T22:47:55.319Z,70.38
2023-02-07T22:51:59.104Z,70.44
2023-02-07T22:56:03.857Z,68.78
2023-02-07T23:00:04.210Z,68.57
2023-02-07T23:04:06.433Z,68.49
2023-02-07T23:08:09.787Z,70.17
2023-02-07T23:12:10.329Z,69.29
2023-02-07T23:16:14.822Z,70.33
2023-02-07T23:20:14.937Z,70.11
2023-02-07T23:24:17.744Z,69.86
2023-02-07T23:28:18.375Z,69.04
2023-02-07T23:32:19.700Z,68.92
2023-02-07T23:36:20.590Z,69.49
2023-02-07T23:40:23.434Z,68.99
2023-02-07T23:44:24.041Z,70.06
2023-02-07T23:48:24.495Z,69.95
2023-02-07T23:52:24.681Z,69.50
2023-02-07T23:56:28.096Z,69.96
